Terminal Aerodrome Forecast
Issued by NWS Charleston, WV

Current Version | Previous Version | Graphics & Text | Print | Product List | Glossary On
Versions: 1 2 3 4 5 6 7 8 9 10 11 12 13 14 15 16 17 18 19 20 21 22 23 24 25 26 27
000
FTUS41 KRLX 191700
TAFEKN
TAF
KEKN 191730Z 1918/2018 00000KT P6SM SCT035 BKN050
      TEMPO 1918/1922 3SM -SHRA BR SCT009 BKN025
     FM192200 00000KT 5SM BR VCTS BKN030CB
     FM200500 00000KT 3SM BR BKN002
     FM201000 00000KT 1SM -SHRA BR SCT005 BKN011
     FM201200 00000KT 1/4SM FG OVC001
     FM201300 00000KT 2SM BR OVC040
     FM201400 22003KT 5SM HZ BKN025=

USA.gov is the U.S. government's official web portal to all federal, state and local government web resources and services.